createdAt,value
2023-05-02T00:00:32.578Z,8.52
2023-05-02T00:01:32.578Z,8.55
2023-05-02T00:02:32.696Z,8.55
2023-05-02T00:03:32.582Z,8.61
2023-05-02T00:04:32.603Z,8.55
2023-05-02T00:05:32.508Z,8.65
2023-05-02T00:06:32.532Z,8.65
2023-05-02T00:07:32.502Z,8.71
2023-05-02T00:08:32.470Z,8.76
2023-05-02T00:09:32.474Z,8.77
2023-05-02T00:10:32.482Z,8.84
2023-05-02T00:11:32.426Z,8.91
2023-05-02T00:12:32.436Z,8.96
2023-05-02T00:13:32.406Z,9.04
2023-05-02T00:14:32.394Z,9.17
2023-05-02T00:15:32.398Z,9.20
2023-05-02T00:16:32.384Z,9.31
2023-05-02T00:17:32.509Z,9.35
2023-05-02T00:18:32.344Z,9.42
2023-05-02T00:19:32.297Z,9.48
2023-05-02T00:20:32.322Z,9.56
2023-05-02T00:21:32.339Z,9.65
2023-05-02T00:22:32.331Z,9.69
2023-05-02T00:23:32.239Z,9.75
2023-05-02T00:24:32.352Z,9.79
2023-05-02T00:25:32.230Z,9.84
2023-05-02T00:26:32.204Z,9.91
2023-05-02T00:27:32.230Z,9.94
2023-05-02T00:28:32.205Z,9.96
2023-05-02T00:29:32.189Z,10.04
2023-05-02T00:30:32.199Z,10.09
2023-05-02T00:31:32.272Z,10.11
2023-05-02T00:32:32.216Z,10.14
2023-05-02T00:33:32.145Z,10.11
2023-05-02T00:34:32.123Z,10.11
2023-05-02T00:35:32.109Z,10.12
2023-05-02T00:36:32.111Z,10.12
2023-05-02T00:37:32.130Z,10.12
2023-05-02T00:38:32.087Z,10.11
2023-05-02T00:39:32.070Z,10.07
2023-05-02T00:40:32.042Z,10.09
2023-05-02T00:41:32.042Z,10.09
2023-05-02T00:42:31.988Z,10.02
2023-05-02T00:43:32.034Z,9.96
2023-05-02T00:44:32.016Z,9.94
2023-05-02T00:45:31.976Z,9.84
2023-05-02T00:46:32.032Z,9.81
2023-05-02T00:47:31.945Z,9.78
2023-05-02T00:48:31.920Z,9.72
2023-05-02T00:49:31.941Z,9.68
2023-05-02T00:50:31.941Z,9.64
2023-05-02T00:51:31.920Z,9.58
2023-05-02T00:52:31.877Z,9.57
2023-05-02T00:53:31.847Z,9.53
2023-05-02T00:54:31.825Z,9.50
2023-05-02T00:55:31.852Z,9.43
2023-05-02T00:56:31.840Z,9.38
2023-05-02T00:57:31.804Z,9.33
2023-05-02T00:58:31.791Z,9.32
2023-05-02T00:59:31.781Z,9.28
2023-05-02T01:00:31.812Z,9.20
2023-05-02T01:01:31.810Z,9.15
2023-05-02T01:02:31.894Z,9.18
2023-05-02T01:03:31.865Z,9.15
2023-05-02T01:04:31.774Z,9.14
2023-05-02T01:05:31.697Z,9.15
2023-05-02T01:06:31.805Z,9.17
2023-05-02T01:07:31.688Z,9.24
2023-05-02T01:08:31.666Z,9.31
2023-05-02T01:09:31.662Z,9.36
2023-05-02T01:10:31.641Z,9.42
2023-05-02T01:11:31.700Z,9.48
2023-05-02T01:12:31.690Z,9.56
2023-05-02T01:13:31.602Z,9.68
2023-05-02T01:14:31.635Z,9.79
2023-05-02T01:15:31.556Z,9.89
2023-05-02T01:16:31.615Z,9.97
2023-05-02T01:17:31.578Z,9.99
2023-05-02T01:18:31.541Z,10.04
2023-05-02T01:19:31.551Z,10.08
2023-05-02T01:20:31.524Z,10.11
2023-05-02T01:21:31.462Z,10.15
2023-05-02T01:22:31.495Z,10.18
2023-05-02T01:23:31.470Z,10.18
2023-05-02T01:24:31.450Z,10.23
2023-05-02T01:25:31.429Z,10.26
2023-05-02T01:26:31.424Z,10.25
2023-05-02T01:27:31.448Z,10.27
2023-05-02T01:28:31.414Z,10.34
2023-05-02T01:29:31.447Z,10.32
2023-05-02T01:30:31.362Z,10.33
2023-05-02T01:31:31.381Z,10.32
2023-05-02T01:32:31.410Z,10.33
2023-05-02T01:33:31.310Z,10.33
2023-05-02T01:34:31.339Z,10.33
2023-05-02T01:35:31.305Z,10.30
2023-05-02T01:36:31.313Z,10.33
2023-05-02T01:37:31.257Z,10.34
2023-05-02T01:38:31.429Z,10.38
2023-05-02T01:39:31.239Z,10.40
2023-05-02T01:40:31.233Z,10.45
2023-05-02T01:41:31.266Z,10.47
2023-05-02T01:42:31.232Z,10.45
2023-05-02T01:43:31.196Z,10.45
2023-05-02T01:44:31.170Z,10.51
2023-05-02T01:45:31.164Z,10.53
2023-05-02T01:46:31.166Z,10.51
2023-05-02T01:47:31.187Z,10.53
2023-05-02T01:48:31.115Z,10.56
2023-05-02T01:49:31.088Z,10.55
2023-05-02T01:50:31.091Z,10.53
2023-05-02T01:51:31.095Z,10.53
2023-05-02T01:52:31.108Z,10.51
2023-05-02T01:53:31.064Z,10.47
2023-05-02T01:54:31.026Z,10.48
2023-05-02T01:55:31.077Z,10.53
2023-05-02T01:56:31.040Z,10.55
2023-05-02T01:57:31.042Z,10.52
2023-05-02T01:58:31.013Z,10.55
2023-05-02T01:59:30.967Z,10.56
2023-05-02T02:00:30.982Z,10.59
2023-05-02T02:01:30.986Z,10.61
2023-05-02T02:02:30.922Z,10.61
2023-05-02T02:03:30.978Z,10.63
2023-05-02T02:04:30.965Z,10.59
2023-05-02T02:05:30.913Z,10.60
2023-05-02T02:06:30.915Z,10.59
2023-05-02T02:07:30.850Z,10.61
2023-05-02T02:08:30.864Z,10.59
2023-05-02T02:09:30.850Z,10.63
2023-05-02T02:10:30.862Z,10.63
2023-05-02T02:11:30.786Z,10.67
2023-05-02T02:12:30.784Z,10.67
2023-05-02T02:13:30.774Z,10.67
2023-05-02T02:14:30.763Z,10.68
2023-05-02T02:15:30.756Z,10.70
2023-05-02T02:16:30.782Z,10.70
2023-05-02T02:17:30.768Z,10.70
2023-05-02T02:18:30.722Z,10.70
2023-05-02T02:19:30.702Z,10.67
2023-05-02T02:20:30.694Z,10.67
2023-05-02T02:21:30.707Z,10.66
2023-05-02T02:22:30.653Z,10.67
2023-05-02T02:23:30.636Z,10.67
2023-05-02T02:24:30.625Z,10.70
2023-05-02T02:25:30.614Z,10.70
2023-05-02T02:26:30.604Z,10.70
2023-05-02T02:27:30.616Z,10.71
2023-05-02T02:28:30.554Z,10.67
2023-05-02T02:29:30.599Z,10.70
2023-05-02T02:30:30.556Z,10.71
2023-05-02T02:31:30.654Z,10.68
2023-05-02T02:32:30.551Z,10.68
2023-05-02T02:33:30.501Z,10.71
2023-05-02T02:34:30.510Z,10.70
2023-05-02T02:35:30.485Z,10.71
2023-05-02T02:36:30.480Z,10.70
2023-05-02T02:37:30.429Z,10.73
2023-05-02T02:38:30.505Z,10.70
2023-05-02T02:39:30.409Z,10.67
2023-05-02T02:40:30.403Z,10.67
2023-05-02T02:41:30.413Z,10.68
2023-05-02T02:42:30.387Z,10.70
2023-05-02T02:43:30.356Z,10.71
2023-05-02T02:44:30.422Z,10.74
2023-05-02T02:45:30.363Z,10.74
2023-05-02T02:46:30.341Z,10.74
2023-05-02T02:47:30.384Z,10.73
2023-05-02T02:48:30.324Z,10.74
2023-05-02T02:49:30.286Z,10.74
2023-05-02T02:50:30.296Z,10.78
2023-05-02T02:51:30.236Z,10.74
2023-05-02T02:52:30.260Z,10.74
2023-05-02T02:53:30.241Z,10.73
2023-05-02T02:54:30.234Z,10.73
2023-05-02T02:55:30.217Z,10.74
2023-05-02T02:56:30.174Z,10.76
2023-05-02T02:57:30.150Z,10.78
2023-05-02T02:58:30.142Z,10.76
2023-05-02T02:59:30.156Z,10.78
2023-05-02T03:00:30.172Z,10.76
2023-05-02T03:01:30.127Z,10.74
2023-05-02T03:02:30.180Z,10.74
2023-05-02T03:03:30.107Z,10.76
2023-05-02T03:04:30.096Z,10.76
2023-05-02T03:05:30.048Z,10.73
2023-05-02T03:06:30.140Z,10.71
2023-05-02T03:07:30.085Z,10.68
2023-05-02T03:08:30.051Z,10.70
2023-05-02T03:09:29.986Z,10.67
2023-05-02T03:10:29.973Z,10.68
2023-05-02T03:11:30.014Z,10.66
2023-05-02T03:12:29.954Z,10.67
2023-05-02T03:13:29.960Z,10.66
2023-05-02T03:14:29.963Z,10.64
2023-05-02T03:15:29.916Z,10.68
2023-05-02T03:16:29.956Z,10.70
2023-05-02T03:17:29.908Z,10.66
2023-05-02T03:18:29.854Z,10.67
2023-05-02T03:19:29.871Z,10.64
2023-05-02T03:20:29.855Z,10.64
2023-05-02T03:21:29.852Z,10.66
2023-05-02T03:22:29.795Z,10.66
2023-05-02T03:23:29.812Z,10.67
2023-05-02T03:24:29.780Z,10.67
2023-05-02T03:25:29.778Z,10.68
2023-05-02T03:26:29.774Z,10.67
2023-05-02T03:27:29.727Z,10.66
2023-05-02T03:28:29.713Z,10.68
2023-05-02T03:29:29.705Z,10.67
2023-05-02T03:30:29.718Z,10.70
2023-05-02T03:31:29.724Z,10.74
2023-05-02T03:32:29.698Z,10.70
2023-05-02T03:33:29.661Z,10.71
2023-05-02T03:34:29.652Z,10.71
2023-05-02T03:35:29.663Z,10.73
2023-05-02T03:36:29.665Z,10.73
2023-05-02T03:37:29.611Z,10.70
2023-05-02T03:38:29.640Z,10.71
2023-05-02T03:39:29.612Z,10.73
2023-05-02T03:40:29.568Z,10.71
2023-05-02T03:41:29.545Z,10.71
2023-05-02T03:42:29.548Z,10.71
2023-05-02T03:43:29.524Z,10.73
2023-05-02T03:44:29.520Z,10.74
2023-05-02T03:45:29.503Z,10.74
2023-05-02T03:46:29.482Z,10.76
2023-05-02T03:47:29.501Z,10.71
2023-05-02T03:48:29.435Z,10.74
2023-05-02T03:49:29.455Z,10.74
2023-05-02T03:50:29.418Z,10.73
2023-05-02T03:51:29.404Z,10.74
2023-05-02T03:52:29.403Z,10.74
2023-05-02T03:53:29.350Z,10.78
2023-05-02T03:54:29.337Z,10.78
2023-05-02T03:55:29.367Z,10.82
2023-05-02T03:56:29.328Z,10.84
2023-05-02T03:57:29.330Z,10.86
2023-05-02T03:58:29.291Z,10.88
2023-05-02T03:59:29.297Z,10.85
2023-05-02T04:00:29.308Z,10.85
2023-05-02T04:01:29.271Z,10.88
2023-05-02T04:02:29.309Z,10.84
2023-05-02T04:03:30.106Z,10.84
2023-05-02T04:04:29.247Z,10.86
2023-05-02T04:05:29.195Z,10.86
2023-05-02T04:06:29.215Z,10.85
2023-05-02T04:07:29.195Z,10.88
2023-05-02T04:08:29.144Z,10.86
2023-05-02T04:09:29.144Z,10.88
2023-05-02T04:10:29.128Z,10.88
2023-05-02T04:11:29.182Z,10.91
2023-05-02T04:12:29.135Z,10.89
2023-05-02T04:13:29.126Z,10.94
2023-05-02T04:14:29.068Z,10.89
2023-05-02T04:15:29.108Z,10.91
2023-05-02T04:16:29.098Z,10.88
2023-05-02T04:17:29.108Z,10.89
2023-05-02T04:18:29.048Z,10.82
2023-05-02T04:19:28.997Z,10.82
2023-05-02T04:20:28.986Z,10.79
2023-05-02T04:21:29.008Z,10.79
2023-05-02T04:22:28.969Z,10.81
2023-05-02T04:23:28.951Z,10.78
2023-05-02T04:24:28.929Z,10.79
2023-05-02T04:25:28.921Z,10.78
2023-05-02T04:26:28.922Z,10.78
2023-05-02T04:27:28.892Z,10.78
2023-05-02T04:28:28.872Z,10.76
2023-05-02T04:29:28.865Z,10.78
2023-05-02T04:30:28.841Z,10.78
2023-05-02T04:31:28.916Z,10.79
2023-05-02T04:32:28.893Z,10.78
2023-05-02T04:33:28.834Z,10.78
2023-05-02T04:34:28.793Z,10.76
2023-05-02T04:35:28.823Z,10.74
2023-05-02T04:36:28.801Z,10.70
2023-05-02T04:37:28.760Z,10.68
2023-05-02T04:38:28.772Z,10.70
2023-05-02T04:39:28.735Z,10.67
2023-05-02T04:40:28.732Z,10.67
2023-05-02T04:41:28.748Z,10.63
2023-05-02T04:42:28.668Z,10.63
2023-05-02T04:43:28.662Z,10.61
2023-05-02T04:44:28.659Z,10.59
2023-05-02T04:45:28.637Z,10.61
2023-05-02T04:46:28.798Z,10.60
2023-05-02T04:47:29.229Z,10.63
2023-05-02T04:48:28.603Z,10.61
2023-05-02T04:49:28.576Z,10.60
2023-05-02T04:50:28.585Z,10.56
2023-05-02T04:51:28.554Z,10.56
2023-05-02T04:52:28.544Z,10.53
2023-05-02T04:53:28.524Z,10.51
2023-05-02T04:54:28.525Z,10.52
2023-05-02T04:55:28.481Z,10.52
2023-05-02T04:56:28.520Z,10.45
2023-05-02T04:57:28.452Z,10.44
2023-05-02T04:58:28.479Z,10.47
2023-05-02T04:59:28.472Z,10.48
2023-05-02T05:00:28.502Z,10.47
2023-05-02T05:01:28.436Z,10.44
2023-05-02T05:02:28.433Z,10.44
2023-05-02T05:03:28.421Z,10.45
2023-05-02T05:04:28.355Z,10.47
2023-05-02T05:05:28.428Z,10.44
2023-05-02T05:06:28.430Z,10.45
2023-05-02T05:07:28.321Z,10.44
2023-05-02T05:08:28.318Z,10.44
2023-05-02T05:09:28.273Z,10.41
2023-05-02T05:10:28.275Z,10.40
2023-05-02T05:11:28.267Z,10.36
2023-05-02T05:12:28.269Z,10.40
2023-05-02T05:13:28.298Z,10.42
2023-05-02T05:14:28.284Z,10.44
2023-05-02T05:15:28.269Z,10.42
2023-05-02T05:16:28.401Z,10.42
2023-05-02T05:17:28.228Z,10.45
2023-05-02T05:18:28.157Z,10.44
2023-05-02T05:19:28.153Z,10.41
2023-05-02T05:20:28.139Z,10.38
2023-05-02T05:21:28.123Z,10.40
2023-05-02T05:22:28.100Z,10.34
2023-05-02T05:23:28.130Z,10.32
2023-05-02T05:24:28.130Z,10.32
2023-05-02T05:25:28.082Z,10.27
2023-05-02T05:26:28.072Z,10.27
2023-05-02T05:27:28.039Z,10.25
2023-05-02T05:28:28.040Z,10.26
2023-05-02T05:29:28.018Z,10.32
2023-05-02T05:30:27.997Z,10.30
2023-05-02T05:31:28.032Z,10.27
2023-05-02T05:32:28.021Z,10.27
2023-05-02T05:33:27.986Z,10.29
2023-05-02T05:34:27.956Z,10.34
2023-05-02T05:35:27.962Z,10.36
2023-05-02T05:36:27.903Z,10.34
2023-05-02T05:37:27.900Z,10.32
2023-05-02T05:38:27.910Z,10.34
2023-05-02T05:39:27.941Z,10.33
2023-05-02T05:40:27.848Z,10.33
2023-05-02T05:41:27.928Z,10.34
2023-05-02T05:42:27.847Z,10.36
2023-05-02T05:43:27.844Z,10.33
2023-05-02T05:44:27.810Z,10.33
2023-05-02T05:45:27.803Z,10.33
2023-05-02T05:46:27.834Z,10.32
2023-05-02T05:47:27.822Z,10.40
2023-05-02T05:48:27.807Z,10.36
2023-05-02T05:49:27.744Z,10.38
2023-05-02T05:50:27.746Z,10.38
2023-05-02T05:51:27.720Z,10.34
2023-05-02T05:52:27.712Z,10.38
2023-05-02T05:53:27.666Z,10.36
2023-05-02T05:54:27.676Z,10.40
2023-05-02T05:55:27.691Z,10.36
2023-05-02T05:56:27.643Z,10.40
2023-05-02T05:57:27.679Z,10.38
2023-05-02T05:58:27.618Z,10.38
2023-05-02T05:59:27.601Z,10.34
2023-05-02T06:00:27.622Z,10.34
2023-05-02T06:01:27.575Z,10.42
2023-05-02T06:02:30.062Z,10.45
2023-05-02T06:03:27.706Z,10.48
2023-05-02T06:04:27.578Z,10.55
2023-05-02T06:05:27.520Z,10.55
2023-05-02T06:06:27.657Z,10.59
2023-05-02T06:07:27.495Z,10.61
2023-05-02T06:08:27.460Z,10.67
2023-05-02T06:09:27.460Z,10.66
2023-05-02T06:10:27.433Z,10.63
2023-05-02T06:11:27.434Z,10.66
2023-05-02T06:12:27.437Z,10.70
2023-05-02T06:13:27.408Z,10.74
2023-05-02T06:14:27.428Z,10.74
2023-05-02T06:15:27.407Z,10.71
2023-05-02T06:16:27.387Z,10.79
2023-05-02T06:17:27.360Z,10.81
2023-05-02T06:18:27.356Z,10.85
2023-05-02T06:19:27.361Z,10.88
2023-05-02T06:20:27.285Z,10.91
2023-05-02T06:21:27.306Z,10.89
2023-05-02T06:22:27.253Z,10.89
2023-05-02T06:23:27.295Z,10.86
2023-05-02T06:24:27.244Z,10.85
2023-05-02T06:25:27.238Z,10.81
2023-05-02T06:26:27.227Z,10.81
2023-05-02T06:27:27.198Z,10.86
2023-05-02T06:28:27.215Z,10.88
2023-05-02T06:29:27.158Z,10.88
2023-05-02T06:30:27.159Z,10.96
2023-05-02T06:31:27.170Z,11.02
2023-05-02T06:32:27.173Z,11.03
2023-05-02T06:33:27.124Z,11.07
2023-05-02T06:34:27.106Z,11.10
2023-05-02T06:35:27.094Z,11.17
2023-05-02T06:36:27.077Z,11.25
2023-05-02T06:37:27.060Z,11.28
2023-05-02T06:38:27.071Z,11.32
2023-05-02T06:39:27.157Z,11.21
2023-05-02T06:40:27.095Z,11.18
2023-05-02T06:41:27.034Z,11.21
2023-05-02T06:42:26.997Z,11.21
2023-05-02T06:43:27.048Z,11.18
2023-05-02T06:44:26.996Z,11.17
2023-05-02T06:45:27.020Z,11.15
2023-05-02T06:46:26.961Z,11.14
2023-05-02T06:47:28.317Z,11.18
2023-05-02T06:48:26.954Z,11.15
2023-05-02T06:49:28.351Z,11.11
2023-05-02T06:50:26.944Z,11.04
2023-05-02T06:51:26.844Z,10.97
2023-05-02T06:52:26.900Z,10.94
2023-05-02T06:53:26.856Z,10.92
2023-05-02T06:54:26.856Z,10.94
2023-05-02T06:55:26.848Z,10.91
2023-05-02T06:56:28.168Z,10.85
2023-05-02T06:57:26.780Z,10.82
2023-05-02T06:58:26.789Z,10.79
2023-05-02T06:59:26.748Z,10.79
2023-05-02T07:00:26.840Z,10.74
2023-05-02T07:01:26.825Z,10.61
2023-05-02T07:02:26.766Z,10.55
2023-05-02T07:03:26.680Z,10.53
2023-05-02T07:04:26.763Z,10.48
2023-05-02T07:05:26.653Z,10.47
2023-05-02T07:06:26.735Z,10.42
2023-05-02T07:07:26.639Z,10.40
2023-05-02T07:08:26.614Z,10.41
2023-05-02T07:09:26.618Z,10.42
2023-05-02T07:10:27.974Z,10.44
2023-05-02T07:11:28.077Z,10.48
2023-05-02T07:12:26.673Z,10.53
2023-05-02T07:13:28.863Z,10.55
2023-05-02T07:14:29.671Z,10.59
2023-05-02T07:15:27.448Z,10.61
2023-05-02T07:16:26.911Z,10.61
2023-05-02T07:17:28.935Z,10.51
2023-05-02T07:18:26.498Z,10.51
2023-05-02T07:19:26.620Z,10.45
2023-05-02T07:20:26.485Z,10.45
2023-05-02T07:21:26.474Z,10.45
2023-05-02T07:22:27.836Z,10.52
2023-05-02T07:23:26.390Z,10.48
2023-05-02T07:24:26.433Z,10.56
2023-05-02T07:25:31.081Z,10.56
2023-05-02T07:26:26.354Z,10.60
2023-05-02T07:27:26.351Z,10.64
2023-05-02T07:28:26.330Z,10.59
2023-05-02T07:29:26.321Z,10.59
2023-05-02T07:30:26.278Z,10.64
2023-05-02T07:31:26.280Z,10.70
2023-05-02T07:32:26.517Z,10.76
2023-05-02T07:33:26.325Z,10.71
2023-05-02T07:34:26.264Z,10.67
2023-05-02T07:35:26.255Z,10.60
2023-05-02T07:36:26.196Z,10.61
2023-05-02T07:37:26.270Z,10.59
2023-05-02T07:38:26.277Z,10.59
2023-05-02T07:39:26.173Z,10.63
2023-05-02T07:40:26.221Z,10.64
2023-05-02T07:41:26.175Z,10.63
2023-05-02T07:42:26.124Z,10.63
2023-05-02T07:43:26.134Z,10.63
2023-05-02T07:44:26.062Z,10.67
2023-05-02T07:45:26.107Z,10.68
2023-05-02T07:46:26.095Z,10.68
2023-05-02T07:47:26.073Z,10.66
2023-05-02T07:48:27.817Z,10.71
2023-05-02T07:49:26.040Z,10.74
2023-05-02T07:50:25.988Z,10.74
2023-05-02T07:51:25.991Z,10.68
2023-05-02T07:52:26.004Z,10.74
2023-05-02T07:53:25.943Z,10.78
2023-05-02T07:54:25.975Z,10.78
2023-05-02T07:55:25.942Z,10.71
2023-05-02T07:56:25.923Z,10.67
2023-05-02T07:57:25.899Z,10.59
2023-05-02T07:58:25.868Z,10.59
2023-05-02T07:59:25.840Z,10.68
2023-05-02T08:00:25.907Z,10.71
2023-05-02T08:01:25.872Z,10.70
2023-05-02T08:02:25.904Z,10.73
2023-05-02T08:03:26.018Z,10.71
2023-05-02T08:04:25.953Z,10.67
2023-05-02T08:05:25.792Z,10.59
2023-05-02T08:06:25.774Z,10.59
2023-05-02T08:07:25.770Z,10.48
2023-05-02T08:08:25.757Z,10.38
2023-05-02T08:09:25.763Z,10.20
2023-05-02T08:10:25.702Z,10.04
2023-05-02T08:11:25.678Z,9.93
2023-05-02T08:12:25.724Z,9.86
2023-05-02T08:13:25.658Z,9.87
2023-05-02T08:14:25.667Z,9.83
2023-05-02T08:15:25.618Z,9.75
2023-05-02T08:16:25.675Z,9.75
2023-05-02T08:17:25.622Z,9.78
2023-05-02T08:18:25.596Z,9.79
2023-05-02T08:19:25.578Z,9.79
2023-05-02T08:20:25.630Z,9.76
2023-05-02T08:21:25.554Z,9.78
2023-05-02T08:22:25.514Z,9.81
2023-05-02T08:23:25.497Z,9.90
2023-05-02T08:24:25.498Z,9.79
2023-05-02T08:25:25.458Z,9.72
2023-05-02T08:26:25.466Z,9.69
2023-05-02T08:27:25.433Z,9.72
2023-05-02T08:28:25.465Z,9.71
2023-05-02T08:29:25.418Z,9.71
2023-05-02T08:30:25.491Z,9.71
2023-05-02T08:31:25.522Z,9.76
2023-05-02T08:32:25.429Z,9.75
2023-05-02T08:33:25.408Z,9.76
2023-05-02T08:34:25.512Z,9.83
2023-05-02T08:35:25.373Z,9.79
2023-05-02T08:36:25.343Z,9.76
2023-05-02T08:37:25.318Z,9.86
2023-05-02T08:38:25.321Z,9.89
2023-05-02T08:39:25.308Z,9.90
2023-05-02T08:40:34.075Z,9.76
2023-05-02T08:41:26.267Z,9.76
2023-05-02T08:42:25.236Z,9.81
2023-05-02T08:43:25.230Z,9.91
2023-05-02T08:44:25.224Z,9.97
2023-05-02T08:45:25.198Z,10.07
2023-05-02T08:46:25.201Z,10.14
2023-05-02T08:47:25.606Z,10.15
2023-05-02T08:48:25.182Z,10.14
2023-05-02T08:49:25.147Z,10.17
2023-05-02T08:50:25.102Z,10.26
2023-05-02T08:51:25.099Z,10.29
2023-05-02T08:52:25.118Z,10.38
2023-05-02T08:53:25.065Z,10.45
2023-05-02T08:54:25.075Z,10.51
2023-05-02T08:55:25.059Z,10.60
2023-05-02T08:56:25.022Z,10.63
2023-05-02T08:57:25.008Z,10.68
2023-05-02T08:58:25.013Z,10.81
2023-05-02T08:59:25.017Z,10.76
2023-05-02T09:00:24.970Z,10.88
2023-05-02T09:01:24.994Z,10.99
2023-05-02T09:02:24.969Z,11.09
2023-05-02T09:03:24.980Z,11.19
2023-05-02T09:04:24.951Z,11.21
2023-05-02T09:05:26.552Z,11.15
2023-05-02T09:06:24.918Z,11.15
2023-05-02T09:07:24.891Z,11.04
2023-05-02T09:08:24.855Z,11.02
2023-05-02T09:09:24.869Z,11.07
2023-05-02T09:10:24.846Z,11.17
2023-05-02T09:11:24.816Z,11.29
2023-05-02T09:12:24.813Z,11.60
2023-05-02T09:13:24.791Z,11.54
2023-05-02T09:14:24.765Z,11.43
2023-05-02T09:15:24.746Z,11.37
2023-05-02T09:16:24.758Z,11.46
2023-05-02T09:17:24.745Z,11.32
2023-05-02T09:18:24.803Z,11.32
2023-05-02T09:19:24.731Z,11.28
2023-05-02T09:20:24.719Z,11.42
2023-05-02T09:21:24.688Z,11.46
2023-05-02T09:22:24.681Z,11.54
2023-05-02T09:23:24.717Z,11.44
2023-05-02T09:24:24.657Z,11.55
2023-05-02T09:25:24.657Z,11.49
2023-05-02T09:26:24.658Z,11.42
2023-05-02T09:27:24.617Z,11.42
2023-05-02T09:28:24.602Z,11.47
2023-05-02T09:29:24.613Z,11.44
2023-05-02T09:30:24.595Z,11.42
2023-05-02T09:31:43.646Z,11.42
2023-05-02T09:32:25.617Z,11.32
2023-05-02T09:33:24.520Z,11.44
2023-05-02T09:34:24.549Z,11.49
2023-05-02T09:35:24.560Z,11.67
2023-05-02T09:36:24.528Z,11.67
2023-05-02T09:37:24.479Z,11.72
2023-05-02T09:38:24.463Z,11.79
2023-05-02T09:39:25.761Z,11.79
2023-05-02T09:40:31.989Z,11.94
2023-05-02T09:41:24.440Z,12.07
2023-05-02T09:42:24.411Z,12.10
2023-05-02T09:43:24.389Z,12.04
2023-05-02T09:44:24.385Z,12.04
2023-05-02T09:45:24.408Z,12.16
2023-05-02T09:46:24.439Z,12.27
2023-05-02T09:47:24.374Z,12.31
2023-05-02T09:48:24.322Z,12.28
2023-05-02T09:49:24.321Z,12.19
2023-05-02T09:50:24.364Z,12.13
2023-05-02T09:51:24.287Z,12.14
2023-05-02T09:52:24.402Z,12.34
2023-05-02T09:53:24.272Z,12.38
2023-05-02T09:54:24.280Z,12.19
2023-05-02T09:55:24.310Z,12.17
2023-05-02T09:56:25.987Z,12.23
2023-05-02T09:57:24.230Z,12.12
2023-05-02T09:58:24.383Z,12.13
2023-05-02T09:59:24.206Z,12.10
2023-05-02T10:00:24.222Z,12.14
2023-05-02T10:01:24.143Z,12.02
2023-05-02T10:02:24.185Z,11.95
2023-05-02T10:03:24.109Z,11.72
2023-05-02T10:04:24.213Z,11.46
2023-05-02T10:05:24.113Z,11.35
2023-05-02T10:06:24.151Z,11.52
2023-05-02T10:07:24.119Z,11.55
2023-05-02T10:08:24.065Z,11.60
2023-05-02T10:09:24.214Z,11.61
2023-05-02T10:10:24.181Z,11.58
2023-05-02T10:11:24.059Z,11.64
2023-05-02T10:12:24.042Z,11.58
2023-05-02T10:13:23.995Z,11.54
2023-05-02T10:14:23.988Z,11.39
2023-05-02T10:15:24.134Z,11.29
2023-05-02T10:16:24.020Z,11.28
2023-05-02T10:17:24.011Z,11.29
2023-05-02T10:18:23.938Z,11.42
2023-05-02T10:19:23.904Z,11.43
2023-05-02T10:20:23.909Z,11.42
2023-05-02T10:21:23.889Z,11.29
2023-05-02T10:22:23.889Z,11.29
2023-05-02T10:23:23.862Z,11.36
2023-05-02T10:24:23.834Z,11.39
2023-05-02T10:25:23.830Z,11.35
2023-05-02T10:26:23.836Z,11.40
2023-05-02T10:27:23.814Z,11.37
2023-05-02T10:28:23.936Z,11.49
2023-05-02T10:29:23.777Z,11.58
2023-05-02T10:30:23.763Z,11.60
2023-05-02T10:31:23.938Z,11.69
2023-05-02T10:32:23.745Z,11.80
2023-05-02T10:33:23.829Z,12.04
2023-05-02T10:34:23.821Z,12.20
2023-05-02T10:35:23.686Z,12.23
2023-05-02T10:36:24.028Z,12.24
2023-05-02T10:37:23.693Z,12.14
2023-05-02T10:38:24.795Z,12.02
2023-05-02T10:39:23.633Z,11.86
2023-05-02T10:40:23.640Z,11.70
2023-05-02T10:41:23.737Z,11.79
2023-05-02T10:42:23.614Z,11.86
2023-05-02T10:43:23.644Z,12.07
2023-05-02T10:44:23.621Z,12.13
2023-05-02T10:45:23.559Z,12.23
2023-05-02T10:46:23.592Z,12.02
2023-05-02T10:47:23.604Z,11.98
2023-05-02T10:48:23.522Z,12.04
2023-05-02T10:49:23.693Z,12.19
2023-05-02T10:50:23.542Z,12.20
2023-05-02T10:51:23.511Z,12.34
2023-05-02T10:52:23.481Z,12.38
2023-05-02T10:53:23.549Z,12.37
2023-05-02T10:54:23.458Z,12.28
2023-05-02T10:55:23.508Z,12.12
2023-05-02T10:56:23.419Z,12.05
2023-05-02T10:57:23.431Z,12.10
2023-05-02T10:58:23.390Z,11.95
2023-05-02T10:59:23.395Z,12.05
2023-05-02T11:01:26.258Z,12.10
2023-05-02T11:02:26.246Z,12.20
2023-05-02T11:03:26.230Z,12.29
2023-05-02T11:04:26.165Z,12.50
2023-05-02T11:05:26.155Z,12.49
2023-05-02T11:06:26.126Z,12.62
2023-05-02T11:07:26.165Z,12.47
2023-05-02T11:08:26.093Z,12.32
2023-05-02T11:09:26.218Z,12.27
2023-05-02T11:10:26.124Z,12.47
2023-05-02T11:11:26.091Z,12.53
2023-05-02T11:12:26.037Z,12.75
2023-05-02T11:13:26.022Z,12.92
2023-05-02T11:14:26.107Z,12.89
2023-05-02T11:15:26.005Z,12.96
2023-05-02T11:16:26.027Z,13.04
2023-05-02T11:17:25.990Z,12.97
2023-05-02T11:18:25.976Z,12.79
2023-05-02T11:19:25.943Z,13.00
2023-05-02T11:20:26.001Z,13.30
2023-05-02T11:21:25.953Z,13.22
2023-05-02T11:22:25.944Z,13.29
2023-05-02T11:23:26.165Z,13.30
2023-05-02T11:24:25.931Z,13.12
2023-05-02T11:25:25.927Z,12.74
2023-05-02T11:26:25.834Z,12.57
2023-05-02T11:27:25.837Z,12.75
2023-05-02T11:28:25.823Z,12.86
2023-05-02T11:29:25.788Z,12.72
2023-05-02T11:30:25.776Z,12.83
2023-05-02T11:31:25.857Z,12.83
2023-05-02T11:32:26.000Z,12.89
2023-05-02T11:33:25.799Z,12.86
2023-05-02T11:34:25.793Z,12.87
2023-05-02T11:35:25.730Z,12.90
2023-05-02T11:36:25.696Z,12.83
2023-05-02T11:37:25.727Z,12.64
2023-05-02T11:38:25.676Z,12.57
2023-05-02T11:43:04.265Z,12.89
2023-05-02T11:47:24.515Z,13.14
2023-05-02T11:48:24.470Z,13.26
2023-05-02T11:49:24.531Z,13.49
2023-05-02T11:50:24.461Z,13.75
2023-05-02T11:51:24.440Z,13.88
2023-05-02T11:52:24.440Z,14.06
2023-05-02T11:53:24.604Z,13.87
2023-05-02T11:54:24.420Z,13.64
2023-05-02T11:55:24.404Z,13.49
2023-05-02T11:56:24.435Z,12.96
2023-05-02T11:57:24.377Z,12.71
2023-05-02T11:58:24.516Z,12.79
2023-05-02T11:59:24.499Z,13.10
2023-05-02T12:00:24.441Z,13.30
2023-05-02T12:01:24.355Z,13.28
2023-05-02T12:02:24.447Z,13.38
2023-05-02T12:03:24.489Z,13.08
2023-05-02T12:04:24.308Z,12.95
2023-05-02T12:05:24.365Z,12.92
2023-05-02T12:06:24.346Z,12.70
2023-05-02T12:07:24.246Z,12.78
2023-05-02T12:08:24.448Z,12.95
2023-05-02T12:09:24.216Z,13.44
2023-05-02T12:10:24.177Z,14.73
2023-05-02T12:11:24.216Z,14.89
2023-05-02T12:12:24.214Z,15.29
2023-05-02T12:13:24.166Z,15.25
2023-05-02T12:14:24.264Z,14.94
2023-05-02T12:15:24.136Z,14.35
2023-05-02T12:16:24.161Z,13.95
2023-05-02T12:17:24.210Z,13.77
2023-05-02T12:18:24.138Z,13.59
2023-05-02T12:19:24.058Z,13.55
2023-05-02T12:20:24.088Z,13.54
2023-05-02T12:21:24.107Z,13.08
2023-05-02T12:22:24.109Z,12.89
2023-05-02T12:23:24.052Z,12.89
2023-05-02T12:24:24.013Z,13.00
2023-05-02T12:25:24.015Z,13.08
2023-05-02T12:26:24.006Z,13.22
2023-05-02T12:27:23.946Z,13.79
2023-05-02T12:28:24.048Z,14.89
2023-05-02T12:29:23.931Z,16.04
2023-05-02T12:30:23.910Z,17.30
2023-05-02T12:31:24.052Z,18.32
2023-05-02T12:32:24.519Z,18.65
2023-05-02T12:33:24.029Z,18.15
2023-05-02T12:34:23.870Z,17.36
2023-05-02T12:35:23.848Z,16.48
2023-05-02T12:36:23.861Z,15.68
2023-05-02T12:37:23.891Z,14.98
2023-05-02T12:38:23.815Z,14.60
2023-05-02T12:39:23.835Z,14.20
2023-05-02T12:40:23.795Z,13.91
2023-05-02T12:41:23.770Z,13.69
2023-05-02T12:42:23.756Z,13.60
2023-05-02T12:43:23.755Z,13.57
2023-05-02T12:44:23.828Z,13.69
2023-05-02T12:45:23.767Z,14.58
2023-05-02T12:46:23.789Z,15.56
2023-05-02T12:47:23.768Z,15.76
2023-05-02T12:48:23.735Z,16.02
2023-05-02T12:49:23.664Z,16.11
2023-05-02T12:50:23.747Z,16.53
2023-05-02T12:51:23.636Z,16.35
2023-05-02T12:52:23.622Z,16.28
2023-05-02T12:53:23.608Z,15.49
2023-05-02T12:54:23.656Z,14.35
2023-05-02T12:55:23.575Z,13.91
2023-05-02T12:56:23.578Z,13.85
2023-05-02T12:57:23.586Z,13.85
2023-05-02T12:58:23.535Z,13.82
2023-05-02T12:59:23.544Z,13.75
2023-05-02T13:00:23.525Z,13.71
2023-05-02T13:01:23.497Z,13.81
2023-05-02T13:02:23.670Z,13.82
2023-05-02T13:03:23.590Z,14.09